Time;durP1;ratioP1;P1;durP2;ratioP2;P2;SDS_P1;SDS_P2;PMS_P1;PMS_P2;Temp;Humidity;BMP_temperature;BMP_pressure;BME280_temperature;BME280_humidity;BME280_pressure;Samples;Min_cycle;Max_cycle;Signal;HPM_P1;HPM_P2
2023/05/03 00:00:06;;;;;;;;;;;;;;;;;;5026951;28;4689;-59
2023/05/03 00:02:32;;;;;;;;;;;;;;;;;;5026374;28;4424;-58
2023/05/03 00:04:59;;;;;;;;;;;;;;;;;;5031080;28;4642;-58
2023/05/03 00:07:25;;;;;;;;;;;;;;;;;;5031078;28;5526;-58
2023/05/03 00:09:50;;;;;;;;;;;;;;;;;;5030953;28;6506;-58
2023/05/03 00:12:15;;;;;;;;;;;;;;;;;;5031140;28;1176;-58
2023/05/03 00:14:41;;;;;;;;;;;;;;;;;;5032101;28;5260;-58
2023/05/03 00:17:06;;;;;;;;;;;;;;;;;;5032470;28;4952;-58
2023/05/03 00:19:32;;;;;;;;;;;;;;;;;;5032423;28;5088;-57
2023/05/03 00:21:58;;;;;;;;;;;;;;;;;;5030067;28;4515;-58
2023/05/03 00:24:23;;;;;;;;;;;;;;;;;;5032155;28;1104;-58
2023/05/03 00:26:48;;;;;;;;;;;;;;;;;;5031843;28;4555;-58
2023/05/03 00:29:14;;;;;;;;;;;;;;;;;;5031581;28;4452;-58
2023/05/03 00:31:40;;;;;;;;;;;;;;;;;;5030773;28;4497;-58
2023/05/03 00:34:05;;;;;;;;;;;;;;;;;;5029865;28;4646;-57
2023/05/03 00:36:30;;;;;;;;;;;;;;;;;;5031451;28;1376;-58
2023/05/03 00:38:56;;;;;;;;;;;;;;;;;;5029760;28;4491;-57
2023/05/03 00:41:23;;;;;;;;;;;;;;;;;;5031890;28;5574;-58
2023/05/03 00:43:48;;;;;;;;;;;;;;;;;;5031975;28;5082;-58
2023/05/03 00:46:13;;;;;;;;;;;;;;;;;;5035434;28;5196;-58
2023/05/03 00:48:39;;;;;;;;;;;;;;;;;;5051822;28;1144;-58
2023/05/03 00:51:04;;;;;;;;;;;;;;;;;;5051145;28;4592;-57
2023/05/03 00:53:30;;;;;;;;;;;;;;;;;;5049732;28;4880;-58
2023/05/03 00:55:55;;;;;;;;;;;;;;;;;;5049841;28;5941;-57
2023/05/03 00:58:20;;;;;;;;;;;;;;;;;;5049994;28;4489;-58
2023/05/03 01:00:47;;;;;;;;;;;;;;;;;;5049813;28;5049;-58
2023/05/03 01:03:12;;;;;;;;;;;;;;;;;;5047746;28;1435;-58
2023/05/03 01:05:59;;;;;;;;;;;;;;;;;;5050601;28;4546;-58
2023/05/03 01:08:33;;;;;;;;;;;;;;;;;;5014763;28;6486;-58
2023/05/03 01:11:11;;;;;;;;;;;;;;;;;;5048671;28;4524;-58
2023/05/03 01:13:42;;;;;;;;;;;;;;;;;;5064891;28;4496;-58
2023/05/03 01:16:11;;;;;;;;;;;;;;;;;;5047994;28;5053;-58
2023/05/03 01:18:38;;;;;;;;;;;;;;;;;;5048699;28;1323;-59
2023/05/03 01:21:03;;;;;;;;;;;;;;;;;;5048523;28;4585;-58
2023/05/03 01:23:41;;;;;;;;;;;;;;;;;;5049766;28;4655;-58
2023/05/03 01:26:15;;;;;;;;;;;;;;;;;;5048215;28;4607;-58
2023/05/03 01:28:41;;;;;;;;;;;;;;;;;;5048583;28;5381;-59
2023/05/03 01:31:06;;;;;;;;;;;;;;;;;;5049937;28;4962;-58
2023/05/03 01:33:52;;;;;;;;;;;;;;;;;;5050095;28;1151;-58
2023/05/03 01:36:22;;;;;;;;;;;;;;;;;;5037995;28;4595;-58
2023/05/03 01:38:47;;;;;;;;;;;;;;;;;;5049217;28;4433;-59
2023/05/03 01:41:12;;;;;;;;;;;;;;;;;;5044067;28;4951;-58
2023/05/03 01:43:38;;;;;;;;;;;;;;;;;;5042607;28;4465;-59
2023/05/03 01:46:03;;;;;;;;;;;;;;;;;;5047477;28;4682;-58
2023/05/03 01:48:28;;;;;;;;;;;;;;;;;;5049449;28;1116;-58
2023/05/03 01:50:53;;;;;;;;;;;;;;;;;;5049408;28;5070;-59
2023/05/03 01:53:19;;;;;;;;;;;;;;;;;;5049333;28;4640;-58
2023/05/03 01:55:44;;;;;;;;;;;;;;;;;;5049150;28;5015;-58
2023/05/03 01:58:09;;;;;;;;;;;;;;;;;;5049016;28;5109;-58
2023/05/03 02:00:34;;;;;;;;;;;;;;;;;;5049610;28;1108;-57
2023/05/03 02:03:00;;;;;;;;;;;;;;;;;;5045216;28;4757;-59
2023/05/03 02:05:25;;;;;;;;;;;;;;;;;;5048396;28;4802;-56
2023/05/03 02:07:50;;;;;;;;;;;;;;;;;;5049125;28;4512;-57
2023/05/03 02:10:16;;;;;;;;;;;;;;;;;;4992304;28;1265614;-57
2023/05/03 02:12:41;;;;;;;;;;;;;;;;;;5050879;28;1120;-57
2023/05/03 02:15:07;;;;;;;;;;;;;;;;;;5050210;28;4573;-57
2023/05/03 02:17:33;;;;;;;;;;;;;;;;;;5049576;28;4929;-57
2023/05/03 02:19:58;;;;;;;;;;;;;;;;;;5049732;28;5120;-57
2023/05/03 02:22:24;;;;;;;;;;;;;;;;;;5049649;28;4654;-56
2023/05/03 02:24:49;;;;;;;;;;;;;;;;;;5047888;28;4806;-57
2023/05/03 02:27:14;;;;;;;;;;;;;;;;;;5049521;28;1909;-57
2023/05/03 02:29:39;;;;;;;;;;;;;;;;;;5049708;28;4598;-57
2023/05/03 02:32:05;;;;;;;;;;;;;;;;;;5048099;28;4636;-58
2023/05/03 02:34:30;;;;;;;;;;;;;;;;;;5049631;28;5112;-57
2023/05/03 02:36:56;;;;;;;;;;;;;;;;;;5048652;28;4461;-57
2023/05/03 02:39:21;;;;;;;;;;;;;;;;;;5049753;28;1081;-57
2023/05/03 02:41:46;;;;;;;;;;;;;;;;;;5049396;28;4429;-57
2023/05/03 02:44:12;;;;;;;;;;;;;;;;;;5049162;28;4479;-57
2023/05/03 02:46:37;;;;;;;;;;;;;;;;;;5049471;28;5083;-58
2023/05/03 02:49:02;;;;;;;;;;;;;;;;;;5048944;28;4855;-58
2023/05/03 02:51:27;;;;;;;;;;;;;;;;;;5049202;28;1541;-57
2023/05/03 02:53:53;;;;;;;;;;;;;;;;;;5048757;28;4408;-57
2023/05/03 02:56:18;;;;;;;;;;;;;;;;;;5049115;28;4580;-57
2023/05/03 02:58:43;;;;;;;;;;;;;;;;;;5048971;28;4998;-57
2023/05/03 03:01:09;;;;;;;;;;;;;;;;;;5045186;28;4617;-57
2023/05/03 03:03:35;;;;;;;;;;;;;;;;;;5048034;28;1164;-57
2023/05/03 03:06:00;;;;;;;;;;;;;;;;;;5047867;28;4887;-57
2023/05/03 03:08:25;;;;;;;;;;;;;;;;;;5047442;28;6418;-57
2023/05/03 03:10:50;;;;;;;;;;;;;;;;;;5047304;28;4822;-56
2023/05/03 03:13:16;;;;;;;;;;;;;;;;;;5048723;28;4599;-57
2023/05/03 03:15:41;;;;;;;;;;;;;;;;;;5049243;28;1113;-57
2023/05/03 03:18:06;;;;;;;;;;;;;;;;;;5048441;28;4979;-58
2023/05/03 03:20:32;;;;;;;;;;;;;;;;;;5045812;28;4551;-57
2023/05/03 03:22:57;;;;;;;;;;;;;;;;;;5048433;28;4547;-59
2023/05/03 03:25:22;;;;;;;;;;;;;;;;;;5048165;28;4614;-59
2023/05/03 03:27:47;;;;;;;;;;;;;;;;;;5048615;28;5149;-59
2023/05/03 03:30:13;;;;;;;;;;;;;;;;;;5048658;28;1222;-59
2023/05/03 03:32:38;;;;;;;;;;;;;;;;;;5048348;28;4946;-59
2023/05/03 03:35:03;;;;;;;;;;;;;;;;;;5048537;28;5071;-59
2023/05/03 03:37:29;;;;;;;;;;;;;;;;;;5048132;28;5594;-60
2023/05/03 03:39:55;;;;;;;;;;;;;;;;;;5048333;28;4842;-59
2023/05/03 03:42:22;;;;;;;;;;;;;;;;;;5049011;28;1093;-59
2023/05/03 03:44:47;;;;;;;;;;;;;;;;;;5022250;28;4635;-59
2023/05/03 03:47:12;;;;;;;;;;;;;;;;;;5046526;28;4671;-59
2023/05/03 03:49:38;;;;;;;;;;;;;;;;;;5048225;28;4513;-59
2023/05/03 03:52:03;;;;;;;;;;;;;;;;;;5047800;28;4850;-58
2023/05/03 03:54:28;;;;;;;;;;;;;;;;;;5048358;28;1237;-59
2023/05/03 03:56:54;;;;;;;;;;;;;;;;;;5048296;28;4434;-59
2023/05/03 03:59:19;;;;;;;;;;;;;;;;;;5046852;28;4500;-59
2023/05/03 04:01:45;;;;;;;;;;;;;;;;;;5043622;28;4644;-59
2023/05/03 04:04:10;;;;;;;;;;;;;;;;;;5048182;28;4664;-59
2023/05/03 04:06:35;;;;;;;;;;;;;;;;;;5047791;28;1958;-59
2023/05/03 04:09:00;;;;;;;;;;;;;;;;;;5044821;28;6485;-58
2023/05/03 04:11:26;;;;;;;;;;;;;;;;;;5047684;28;4469;-59
2023/05/03 04:13:51;;;;;;;;;;;;;;;;;;5047918;28;4993;-59
2023/05/03 04:16:16;;;;;;;;;;;;;;;;;;5047503;28;4981;-59
2023/05/03 04:18:42;;;;;;;;;;;;;;;;;;5047876;28;1238;-58
2023/05/03 04:21:07;;;;;;;;;;;;;;;;;;5047871;28;4606;-58
2023/05/03 04:23:32;;;;;;;;;;;;;;;;;;5047955;28;4606;-59
2023/05/03 04:25:58;;;;;;;;;;;;;;;;;;5047901;28;4456;-59
2023/05/03 04:28:24;;;;;;;;;;;;;;;;;;5047625;28;4542;-59
2023/05/03 04:30:50;;;;;;;;;;;;;;;;;;5047742;28;4467;-58
2023/05/03 04:33:15;;;;;;;;;;;;;;;;;;5048436;28;1215;-59
2023/05/03 04:35:41;;;;;;;;;;;;;;;;;;5046451;28;4637;-59
2023/05/03 04:38:07;;;;;;;;;;;;;;;;;;5047286;28;5092;-59
2023/05/03 04:40:33;;;;;;;;;;;;;;;;;;5047244;28;5015;-59
2023/05/03 04:42:58;;;;;;;;;;;;;;;;;;5047203;28;5124;-59
2023/05/03 04:45:24;;;;;;;;;;;;;;;;;;5048507;28;2162;-59
2023/05/03 04:47:49;;;;;;;;;;;;;;;;;;5050753;28;4598;-58
2023/05/03 04:50:14;;;;;;;;;;;;;;;;;;5048851;28;4606;-59
2023/05/03 04:52:40;;;;;;;;;;;;;;;;;;5049564;28;4516;-57
2023/05/03 04:55:05;;;;;;;;;;;;;;;;;;5050788;28;5079;-58
2023/05/03 04:57:31;;;;;;;;;;;;;;;;;;5051555;28;1140;-59
2023/05/03 04:59:57;;;;;;;;;;;;;;;;;;5050734;28;4624;-59
2023/05/03 05:02:22;;;;;;;;;;;;;;;;;;5047059;28;4437;-59
2023/05/03 05:04:47;;;;;;;;;;;;;;;;;;5051076;28;4555;-59
2023/05/03 05:07:13;;;;;;;;;;;;;;;;;;5049961;28;4472;-58
2023/05/03 05:09:38;;;;;;;;;;;;;;;;;;5037205;28;6293;-59
2023/05/03 05:12:04;;;;;;;;;;;;;;;;;;5044417;28;5000;-59
2023/05/03 05:14:29;;;;;;;;;;;;;;;;;;5049674;28;5091;-58
2023/05/03 05:16:54;;;;;;;;;;;;;;;;;;5050579;28;4461;-59
2023/05/03 05:19:20;;;;;;;;;;;;;;;;;;5051051;28;4465;-59
2023/05/03 05:21:45;;;;;;;;;;;;;;;;;;5050671;28;4445;-58
2023/05/03 05:24:10;;;;;;;;;;;;;;;;;;5050687;28;1179;-59
2023/05/03 05:26:36;;;;;;;;;;;;;;;;;;5050300;28;4498;-59
2023/05/03 05:29:01;;;;;;;;;;;;;;;;;;5048733;28;4744;-58
2023/05/03 05:31:26;;;;;;;;;;;;;;;;;;5043630;28;4678;-58
2023/05/03 05:33:51;;;;;;;;;;;;;;;;;;5042864;28;5059;-59
2023/05/03 05:36:17;;;;;;;;;;;;;;;;;;5038979;28;1859;-59
2023/05/03 05:38:42;;;;;;;;;;;;;;;;;;5044882;28;4827;-59
2023/05/03 05:41:07;;;;;;;;;;;;;;;;;;5049379;28;4637;-59
2023/05/03 05:43:32;;;;;;;;;;;;;;;;;;5042908;28;4532;-58
2023/05/03 05:45:58;;;;;;;;;;;;;;;;;;5039151;28;4737;-59
2023/05/03 05:48:23;;;;;;;;;;;;;;;;;;5050698;28;1919;-58
2023/05/03 05:50:49;;;;;;;;;;;;;;;;;;5048991;28;4547;-59
2023/05/03 05:53:14;;;;;;;;;;;;;;;;;;5047262;28;4580;-59
2023/05/03 05:55:39;;;;;;;;;;;;;;;;;;5038393;28;4506;-59
2023/05/03 05:58:05;;;;;;;;;;;;;;;;;;5049052;28;4475;-58
2023/05/03 06:00:30;;;;;;;;;;;;;;;;;;5049982;28;1234;-58
2023/05/03 06:02:55;;;;;;;;;;;;;;;;;;5046247;28;4733;-58
2023/05/03 06:05:21;;;;;;;;;;;;;;;;;;5049439;28;4434;-57
2023/05/03 06:07:46;;;;;;;;;;;;;;;;;;5049213;28;5093;-58
2023/05/03 06:10:12;;;;;;;;;;;;;;;;;;5045730;28;7055;-58
2023/05/03 06:12:37;;;;;;;;;;;;;;;;;;5050242;28;1207;-59
2023/05/03 06:15:02;;;;;;;;;;;;;;;;;;5049934;28;5285;-58
2023/05/03 06:17:28;;;;;;;;;;;;;;;;;;5049267;28;4667;-59
2023/05/03 06:19:53;;;;;;;;;;;;;;;;;;5049343;28;4467;-58
2023/05/03 06:22:18;;;;;;;;;;;;;;;;;;5047801;28;4648;-57
2023/05/03 06:24:44;;;;;;;;;;;;;;;;;;5048516;28;2046;-58
2023/05/03 06:27:09;;;;;;;;;;;;;;;;;;5049175;28;4543;-58
2023/05/03 06:29:34;;;;;;;;;;;;;;;;;;5049165;28;5767;-59
2023/05/03 06:32:00;;;;;;;;;;;;;;;;;;5049558;28;4730;-59
2023/05/03 06:34:25;;;;;;;;;;;;;;;;;;5048872;28;4640;-59
2023/05/03 06:36:50;;;;;;;;;;;;;;;;;;5048203;28;5041;-58
2023/05/03 06:39:16;;;;;;;;;;;;;;;;;;5048878;28;1104;-58
2023/05/03 06:41:41;;;;;;;;;;;;;;;;;;5049035;28;4913;-58
2023/05/03 06:44:07;;;;;;;;;;;;;;;;;;5048446;28;5387;-58
2023/05/03 06:46:32;;;;;;;;;;;;;;;;;;5047396;28;5157;-58
2023/05/03 06:48:57;;;;;;;;;;;;;;;;;;5048712;28;4481;-59
2023/05/03 06:51:26;;;;;;;;;;;;;;;;;;5047745;28;1093;-58
2023/05/03 06:53:52;;;;;;;;;;;;;;;;;;5048737;28;5092;-60
2023/05/03 06:56:18;;;;;;;;;;;;;;;;;;5048760;28;4495;-57
2023/05/03 06:58:43;;;;;;;;;;;;;;;;;;5045763;28;4541;-60
2023/05/03 07:01:08;;;;;;;;;;;;;;;;;;5043899;28;4556;-64
2023/05/03 07:03:33;;;;;;;;;;;;;;;;;;5048118;28;1157;-61
2023/05/03 07:05:59;;;;;;;;;;;;;;;;;;5046402;28;4543;-61
2023/05/03 07:08:24;;;;;;;;;;;;;;;;;;5046562;28;6478;-61
2023/05/03 07:10:49;;;;;;;;;;;;;;;;;;5044919;28;4816;-61
2023/05/03 07:13:14;;;;;;;;;;;;;;;;;;5047300;28;4635;-61
2023/05/03 07:15:40;;;;;;;;;;;;;;;;;;5046904;28;1346;-61
2023/05/03 07:18:05;;;;;;;;;;;;;;;;;;5041571;28;4423;-61
2023/05/03 07:20:30;;;;;;;;;;;;;;;;;;5044078;28;4551;-63
2023/05/03 07:22:57;;;;;;;;;;;;;;;;;;5047562;28;4636;-60
2023/05/03 07:25:22;;;;;;;;;;;;;;;;;;5047969;28;5046;-61
2023/05/03 07:27:47;;;;;;;;;;;;;;;;;;5047328;28;5086;-60
2023/05/03 07:30:13;;;;;;;;;;;;;;;;;;5048226;28;1147;-59
2023/05/03 07:32:38;;;;;;;;;;;;;;;;;;5047351;28;4470;-60
2023/05/03 07:35:04;;;;;;;;;;;;;;;;;;5047468;28;4611;-60
2023/05/03 07:37:29;;;;;;;;;;;;;;;;;;5046309;28;4635;-60
2023/05/03 07:39:55;;;;;;;;;;;;;;;;;;5047162;28;4718;-60
2023/05/03 07:42:21;;;;;;;;;;;;;;;;;;5047384;28;1227;-60
2023/05/03 07:44:46;;;;;;;;;;;;;;;;;;5047750;28;5210;-60
2023/05/03 07:47:11;;;;;;;;;;;;;;;;;;5040425;28;5026;-60
2023/05/03 07:49:37;;;;;;;;;;;;;;;;;;5038517;28;5233;-61
2023/05/03 07:52:02;;;;;;;;;;;;;;;;;;5036034;28;4561;-59
2023/05/03 07:54:27;;;;;;;;;;;;;;;;;;5058357;28;1117;-58
2023/05/03 07:56:53;;;;;;;;;;;;;;;;;;5044313;28;4615;-57
2023/05/03 07:59:18;;;;;;;;;;;;;;;;;;5046567;28;4910;-57
2023/05/03 08:01:43;;;;;;;;;;;;;;;;;;5041278;28;5093;-57
2023/05/03 08:04:08;;;;;;;;;;;;;;;;;;5046293;28;4493;-60
2023/05/03 08:06:41;;;;;;;;;;;;;;;;;;5041546;28;1971;-58
2023/05/03 08:09:07;;;;;;;;;;;;;;;;;;5042900;28;6363;-58
2023/05/03 08:11:33;;;;;;;;;;;;;;;;;;5046400;28;4480;-57
2023/05/03 08:13:58;;;;;;;;;;;;;;;;;;5040633;28;4820;-57
2023/05/03 08:16:23;;;;;;;;;;;;;;;;;;5046748;28;4757;-57
2023/05/03 08:18:48;;;;;;;;;;;;;;;;;;5046130;28;5027;-57
2023/05/03 08:21:15;;;;;;;;;;;;;;;;;;5046920;28;1226;-57
2023/05/03 08:23:41;;;;;;;;;;;;;;;;;;5045549;28;4938;-57
2023/05/03 08:26:08;;;;;;;;;;;;;;;;;;5049402;28;4654;-58
2023/05/03 08:28:33;;;;;;;;;;;;;;;;;;5050119;28;5112;-58
2023/05/03 08:30:58;;;;;;;;;;;;;;;;;;5050259;28;4562;-58
2023/05/03 08:33:24;;;;;;;;;;;;;;;;;;5050278;28;1234;-58
2023/05/03 08:35:49;;;;;;;;;;;;;;;;;;5039570;28;4697;-58
2023/05/03 08:38:15;;;;;;;;;;;;;;;;;;5049769;28;4634;-57
2023/05/03 08:40:40;;;;;;;;;;;;;;;;;;5049844;28;4476;-58
2023/05/03 08:43:06;;;;;;;;;;;;;;;;;;5039621;28;4457;-57
2023/05/03 08:45:31;;;;;;;;;;;;;;;;;;5048025;28;1582;-58
2023/05/03 08:47:56;;;;;;;;;;;;;;;;;;5047555;28;4577;-57
2023/05/03 08:50:22;;;;;;;;;;;;;;;;;;5047551;28;4497;-57
2023/05/03 08:52:47;;;;;;;;;;;;;;;;;;5047887;28;5478;-58
2023/05/03 08:55:13;;;;;;;;;;;;;;;;;;5049409;28;5252;-58
2023/05/03 08:57:38;;;;;;;;;;;;;;;;;;5049150;28;1149;-58
2023/05/03 09:00:09;;;;;;;;;;;;;;;;;;5049245;28;4511;-58
2023/05/03 09:02:37;;;;;;;;;;;;;;;;;;5046616;28;4501;-58
2023/05/03 09:05:04;;;;;;;;;;;;;;;;;;5048121;28;4489;-59
2023/05/03 09:07:29;;;;;;;;;;;;;;;;;;5047226;28;4835;-58
2023/05/03 09:09:56;;;;;;;;;;;;;;;;;;5044806;28;6346;-59
2023/05/03 09:12:35;;;;;;;;;;;;;;;;;;5050193;28;1083;-59
2023/05/03 09:15:00;;;;;;;;;;;;;;;;;;5048959;28;4413;-58
2023/05/03 09:17:25;;;;;;;;;;;;;;;;;;5049826;28;4543;-61
2023/05/03 09:19:54;;;;;;;;;;;;;;;;;;5049405;28;5585;-60
2023/05/03 09:22:21;;;;;;;;;;;;;;;;;;5056783;28;4479;-57
2023/05/03 09:24:52;;;;;;;;;;;;;;;;;;5049487;28;4715;-57
2023/05/03 09:27:20;;;;;;;;;;;;;;;;;;5049951;28;1930;-58
2023/05/03 09:29:45;;;;;;;;;;;;;;;;;;5049946;28;4608;-58
2023/05/03 09:32:11;;;;;;;;;;;;;;;;;;5049799;28;4651;-57
2023/05/03 09:34:36;;;;;;;;;;;;;;;;;;5049324;28;5043;-58
2023/05/03 09:37:01;;;;;;;;;;;;;;;;;;5049380;28;5053;-58
2023/05/03 09:39:26;;;;;;;;;;;;;;;;;;5049795;28;1091;-58
2023/05/03 09:41:52;;;;;;;;;;;;;;;;;;5050010;28;4778;-58
2023/05/03 09:44:17;;;;;;;;;;;;;;;;;;5049104;28;4442;-59
2023/05/03 09:47:02;;;;;;;;;;;;;;;;;;5044426;28;4683;-58
2023/05/03 09:49:29;;;;;;;;;;;;;;;;;;5050036;28;4464;-59
2023/05/03 09:51:54;;;;;;;;;;;;;;;;;;5039834;28;4852;-59
2023/05/03 09:54:19;;;;;;;;;;;;;;;;;;5047131;28;1127;-59
2023/05/03 09:56:46;;;;;;;;;;;;;;;;;;5041877;28;4422;-57
2023/05/03 09:59:11;;;;;;;;;;;;;;;;;;5048466;28;4462;-59
2023/05/03 10:01:36;;;;;;;;;;;;;;;;;;5045504;28;4473;-58
2023/05/03 10:04:01;;;;;;;;;;;;;;;;;;5041806;28;4988;-58
2023/05/03 10:06:27;;;;;;;;;;;;;;;;;;5045430;28;2439;-59
2023/05/03 10:09:19;;;;;;;;;;;;;;;;;;5044785;28;6371;-59
2023/05/03 10:11:47;;;;;;;;;;;;;;;;;;5035647;28;5028;-58
2023/05/03 10:14:12;;;;;;;;;;;;;;;;;;5049094;28;5073;-62
2023/05/03 10:16:38;;;;;;;;;;;;;;;;;;5047775;28;5077;-62
2023/05/03 10:19:09;;;;;;;;;;;;;;;;;;5048006;28;5141;-62
2023/05/03 10:22:01;;;;;;;;;;;;;;;;;;5048960;28;1253;-63
2023/05/03 10:24:26;;;;;;;;;;;;;;;;;;5052093;28;6414;-62
2023/05/03 10:26:51;;;;;;;;;;;;;;;;;;5048979;28;4602;-62
2023/05/03 10:29:32;;;;;;;;;;;;;;;;;;5048629;28;4527;-62
2023/05/03 10:31:57;;;;;;;;;;;;;;;;;;5048735;28;4563;-61
2023/05/03 10:34:23;;;;;;;;;;;;;;;;;;5048941;28;4694;-62
2023/05/03 10:36:51;;;;;;;;;;;;;;;;;;5048209;28;5028;-61
2023/05/03 10:39:17;;;;;;;;;;;;;;;;;;5048946;28;1021;-60
2023/05/03 10:41:43;;;;;;;;;;;;;;;;;;5048541;28;4760;-62
2023/05/03 10:44:27;;;;;;;;;;;;;;;;;;5048813;28;4666;-61
2023/05/03 10:46:52;;;;;;;;;;;;;;;;;;5048304;28;5921;-61
2023/05/03 10:49:18;;;;;;;;;;;;;;;;;;5048061;28;5023;-61
2023/05/03 10:51:44;;;;;;;;;;;;;;;;;;5048071;28;1217;-61
2023/05/03 10:54:09;;;;;;;;;;;;;;;;;;5048601;28;4578;-61
2023/05/03 10:56:46;;;;;;;;;;;;;;;;;;5048247;28;5099;-61
2023/05/03 10:59:11;;;;;;;;;;;;;;;;;;5048290;28;4461;-61
2023/05/03 11:01:36;;;;;;;;;;;;;;;;;;5044515;28;5141;-61
2023/05/03 11:04:11;;;;;;;;;;;;;;;;;;5048627;28;4638;-60
2023/05/03 11:06:36;;;;;;;;;;;;;;;;;;5047682;28;1926;-62
2023/05/03 11:09:05;;;;;;;;;;;;;;;;;;5042328;28;6358;-61
2023/05/03 11:11:31;;;;;;;;;;;;;;;;;;5048565;28;4993;-61
2023/05/03 11:13:56;;;;;;;;;;;;;;;;;;5047839;28;4441;-61
2023/05/03 11:16:22;;;;;;;;;;;;;;;;;;5048580;28;4528;-62
2023/05/03 11:18:47;;;;;;;;;;;;;;;;;;5047053;28;5069;-61
2023/05/03 11:21:13;;;;;;;;;;;;;;;;;;5049338;28;1176;-62
2023/05/03 11:23:38;;;;;;;;;;;;;;;;;;5048111;28;4598;-61
2023/05/03 11:26:06;;;;;;;;;;;;;;;;;;5048227;28;4454;-62
2023/05/03 11:28:32;;;;;;;;;;;;;;;;;;5048121;28;5071;-61
2023/05/03 11:30:57;;;;;;;;;;;;;;;;;;5048574;28;5002;-61
2023/05/03 11:33:22;;;;;;;;;;;;;;;;;;5048511;28;1041;-61
2023/05/03 11:35:48;;;;;;;;;;;;;;;;;;5048268;28;4441;-62
2023/05/03 11:38:13;;;;;;;;;;;;;;;;;;5048021;28;5385;-62
2023/05/03 11:40:38;;;;;;;;;;;;;;;;;;5047503;28;5105;-62
2023/05/03 11:43:04;;;;;;;;;;;;;;;;;;5048004;28;4704;-61
2023/05/03 11:45:44;;;;;;;;;;;;;;;;;;5048051;28;1148;-63
2023/05/03 11:48:10;;;;;;;;;;;;;;;;;;5046527;28;4616;-60
2023/05/03 11:50:50;;;;;;;;;;;;;;;;;;5047021;28;4509;-64
2023/05/03 11:53:15;;;;;;;;;;;;;;;;;;5048051;28;4979;-61
2023/05/03 11:55:42;;;;;;;;;;;;;;;;;;5045938;28;4717;-61
2023/05/03 11:58:08;;;;;;;;;;;;;;;;;;5048070;28;4741;-61
2023/05/03 12:00:33;;;;;;;;;;;;;;;;;;5051875;28;1065;-62
2023/05/03 12:02:58;;;;;;;;;;;;;;;;;;5039178;28;4646;-61
2023/05/03 12:05:24;;;;;;;;;;;;;;;;;;5052257;28;5091;-60
2023/05/03 12:07:50;;;;;;;;;;;;;;;;;;5051021;28;4501;-62
2023/05/03 12:10:17;;;;;;;;;;;;;;;;;;5045689;28;6453;-60
2023/05/03 12:12:55;;;;;;;;;;;;;;;;;;5052285;28;1365;-62
2023/05/03 12:15:28;;;;;;;;;;;;;;;;;;5052295;28;4955;-61
2023/05/03 12:17:57;;;;;;;;;;;;;;;;;;5052076;28;4411;-61
2023/05/03 12:20:22;;;;;;;;;;;;;;;;;;5051724;28;4538;-61
2023/05/03 12:22:51;;;;;;;;;;;;;;;;;;5051671;28;4969;-60
2023/05/03 12:25:17;;;;;;;;;;;;;;;;;;5051401;28;4555;-59
2023/05/03 12:27:42;;;;;;;;;;;;;;;;;;5052148;28;1906;-61
2023/05/03 12:30:09;;;;;;;;;;;;;;;;;;5050309;28;5002;-62
2023/05/03 12:32:36;;;;;;;;;;;;;;;;;;5051767;28;4637;-61
2023/05/03 12:35:01;;;;;;;;;;;;;;;;;;5051781;28;4805;-62
2023/05/03 12:37:27;;;;;;;;;;;;;;;;;;5050950;28;4479;-60
2023/05/03 12:39:52;;;;;;;;;;;;;;;;;;5051291;28;5016;-62
2023/05/03 12:42:17;;;;;;;;;;;;;;;;;;5052100;28;1151;-60
2023/05/03 12:44:43;;;;;;;;;;;;;;;;;;5049943;28;4476;-60
2023/05/03 12:47:08;;;;;;;;;;;;;;;;;;5050961;28;4534;-62
2023/05/03 12:49:33;;;;;;;;;;;;;;;;;;5051367;28;5050;-60
2023/05/03 12:51:59;;;;;;;;;;;;;;;;;;5050898;28;5272;-58
2023/05/03 12:54:25;;;;;;;;;;;;;;;;;;5051860;28;1405;-61
2023/05/03 12:56:50;;;;;;;;;;;;;;;;;;5051078;28;4491;-62
2023/05/03 12:59:15;;;;;;;;;;;;;;;;;;5050839;28;4426;-61
2023/05/03 13:01:41;;;;;;;;;;;;;;;;;;5049034;28;4524;-62
2023/05/03 13:04:06;;;;;;;;;;;;;;;;;;5050877;28;4482;-60
2023/05/03 13:06:32;;;;;;;;;;;;;;;;;;5050543;28;1910;-61
2023/05/03 13:08:58;;;;;;;;;;;;;;;;;;5044986;28;6467;-61
2023/05/03 13:11:24;;;;;;;;;;;;;;;;;;5048836;28;4512;-61
2023/05/03 13:13:51;;;;;;;;;;;;;;;;;;5050442;28;4909;-63
2023/05/03 13:16:16;;;;;;;;;;;;;;;;;;5050549;28;4490;-63
2023/05/03 13:18:41;;;;;;;;;;;;;;;;;;5049627;28;1193;-63
2023/05/03 13:21:07;;;;;;;;;;;;;;;;;;5050228;28;4995;-62
2023/05/03 13:23:32;;;;;;;;;;;;;;;;;;5048984;28;4644;-61
2023/05/03 13:25:58;;;;;;;;;;;;;;;;;;5048733;28;4646;-63
2023/05/03 13:28:23;;;;;;;;;;;;;;;;;;5049805;28;4543;-62
2023/05/03 13:30:49;;;;;;;;;;;;;;;;;;5050274;28;5097;-62
2023/05/03 13:34:30;;;;;;;;;;;;;;;;;;5093496;27;4816;-56
2023/05/03 13:36:56;;;;;;;;;;;;;;;;;;5037550;28;4596;-57
2023/05/03 13:39:21;;;;;;;;;;;;;;;;;;5052000;28;1223;-56
2023/05/03 13:41:46;;;;;;;;;;;;;;;;;;5063540;28;4639;-55
2023/05/03 13:44:12;;;;;;;;;;;;;;;;;;5069920;28;4635;-54
2023/05/03 13:46:37;;;;;;;;;;;;;;;;;;5071119;28;4709;-53
2023/05/03 13:49:04;;;;;;;;;;;;;;;;;;5067257;28;5055;-55
2023/05/03 13:51:30;;;;;;;;;;;;;;;;;;5067778;28;1149;-55
2023/05/03 13:53:56;;;;;;;;;;;;;;;;;;5062114;28;4516;-56
2023/05/03 13:56:21;;;;;;;;;;;;;;;;;;5073148;28;4631;-56
2023/05/03 13:58:46;;;;;;;;;;;;;;;;;;5067065;28;4893;-60
2023/05/03 14:01:12;;;;;;;;;;;;;;;;;;5061946;28;5028;-54
2023/05/03 14:03:38;;;;;;;;;;;;;;;;;;5076153;28;1120;-55
2023/05/03 14:06:03;;;;;;;;;;;;;;;;;;5069892;28;4728;-55
2023/05/03 14:08:29;;;;;;;;;;;;;;;;;;5057117;28;6468;-56
2023/05/03 14:10:54;;;;;;;;;;;;;;;;;;5068123;28;4624;-55
2023/05/03 14:13:20;;;;;;;;;;;;;;;;;;5065385;28;4641;-56
2023/05/03 14:15:45;;;;;;;;;;;;;;;;;;5079725;28;1111;-54
2023/05/03 14:18:11;;;;;;;;;;;;;;;;;;5071410;28;6183;-56
2023/05/03 14:20:36;;;;;;;;;;;;;;;;;;5067709;28;4472;-53
2023/05/03 14:23:02;;;;;;;;;;;;;;;;;;5055179;28;4461;-55
2023/05/03 14:25:27;;;;;;;;;;;;;;;;;;5068876;28;4460;-56
2023/05/03 14:27:53;;;;;;;;;;;;;;;;;;5067855;28;4676;-55
2023/05/03 14:30:18;;;;;;;;;;;;;;;;;;5074897;28;1922;-56
2023/05/03 14:32:44;;;;;;;;;;;;;;;;;;5076555;28;5128;-56
2023/05/03 14:35:09;;;;;;;;;;;;;;;;;;5060506;28;4857;-57
2023/05/03 14:37:35;;;;;;;;;;;;;;;;;;5061217;28;4752;-57
2023/05/03 14:40:01;;;;;;;;;;;;;;;;;;5063970;28;5196;-55
2023/05/03 14:42:29;;;;;;;;;;;;;;;;;;5054980;28;1734;-56
2023/05/03 14:44:54;;;;;;;;;;;;;;;;;;5075911;28;4487;-55
2023/05/03 14:47:20;;;;;;;;;;;;;;;;;;5060359;28;4426;-55
2023/05/03 14:49:46;;;;;;;;;;;;;;;;;;5060078;28;4813;-55
2023/05/03 14:52:11;;;;;;;;;;;;;;;;;;5051482;28;4614;-55
2023/05/03 14:54:36;;;;;;;;;;;;;;;;;;5050859;28;1859;-55
2023/05/03 14:57:03;;;;;;;;;;;;;;;;;;5046001;28;5005;-54
2023/05/03 14:59:29;;;;;;;;;;;;;;;;;;5056512;28;4696;-54
2023/05/03 15:01:55;;;;;;;;;;;;;;;;;;5055674;28;4472;-53
2023/05/03 15:04:20;;;;;;;;;;;;;;;;;;5050805;28;4416;-55
2023/05/03 15:06:46;;;;;;;;;;;;;;;;;;5042689;28;4458;-53
2023/05/03 15:09:12;;;;;;;;;;;;;;;;;;5054726;28;6617;-53
2023/05/03 15:11:37;;;;;;;;;;;;;;;;;;5052170;28;4426;-55
2023/05/03 15:14:03;;;;;;;;;;;;;;;;;;5049933;28;4475;-55
2023/05/03 15:16:28;;;;;;;;;;;;;;;;;;5061254;28;4881;-53
2023/05/03 15:18:53;;;;;;;;;;;;;;;;;;5054239;28;4735;-55
2023/05/03 15:21:18;;;;;;;;;;;;;;;;;;5049149;28;1160;-54
2023/05/03 15:23:44;;;;;;;;;;;;;;;;;;5056573;28;4576;-56
2023/05/03 15:26:10;;;;;;;;;;;;;;;;;;5064857;28;4428;-55
2023/05/03 15:28:36;;;;;;;;;;;;;;;;;;5053657;28;5112;-55
2023/05/03 15:31:01;;;;;;;;;;;;;;;;;;5050257;28;5027;-55
2023/05/03 15:33:27;;;;;;;;;;;;;;;;;;5059880;28;1910;-56
2023/05/03 15:35:53;;;;;;;;;;;;;;;;;;5057858;28;4469;-55
2023/05/03 15:38:18;;;;;;;;;;;;;;;;;;5053380;28;5181;-56
2023/05/03 15:40:43;;;;;;;;;;;;;;;;;;5045927;28;4495;-53
2023/05/03 15:43:09;;;;;;;;;;;;;;;;;;5052516;28;5007;-55
2023/05/03 15:45:34;;;;;;;;;;;;;;;;;;5055207;28;1197;-55
2023/05/03 15:47:59;;;;;;;;;;;;;;;;;;5062636;28;5100;-54
2023/05/03 15:50:25;;;;;;;;;;;;;;;;;;5058039;28;4446;-53
2023/05/03 15:52:50;;;;;;;;;;;;;;;;;;5055288;28;4677;-54
2023/05/03 15:55:16;;;;;;;;;;;;;;;;;;5063785;28;4468;-53
2023/05/03 15:57:41;;;;;;;;;;;;;;;;;;5056689;28;1145;-54
2023/05/03 16:00:11;;;;;;;;;;;;;;;;;;5054059;28;4623;-54
2023/05/03 16:02:36;;;;;;;;;;;;;;;;;;5054655;28;4618;-54
2023/05/03 16:05:02;;;;;;;;;;;;;;;;;;5059442;28;4543;-54
2023/05/03 16:07:27;;;;;;;;;;;;;;;;;;5036748;28;4854;-55
2023/05/03 16:09:52;;;;;;;;;;;;;;;;;;5051813;28;6474;-54
2023/05/03 16:12:18;;;;;;;;;;;;;;;;;;5054390;28;1977;-55
2023/05/03 16:14:43;;;;;;;;;;;;;;;;;;5049133;28;4543;-54
2023/05/03 16:17:08;;;;;;;;;;;;;;;;;;5060974;28;4503;-54
2023/05/03 16:19:34;;;;;;;;;;;;;;;;;;5054307;28;5083;-53
2023/05/03 16:21:59;;;;;;;;;;;;;;;;;;5067507;28;4956;-54
2023/05/03 16:24:25;;;;;;;;;;;;;;;;;;5058320;28;1144;-54
2023/05/03 16:26:51;;;;;;;;;;;;;;;;;;5053649;28;5005;-54
2023/05/03 16:29:16;;;;;;;;;;;;;;;;;;5057961;28;4444;-53
2023/05/03 16:31:42;;;;;;;;;;;;;;;;;;5049131;28;4655;-54
2023/05/03 16:34:07;;;;;;;;;;;;;;;;;;5052250;28;4868;-54
2023/05/03 16:36:33;;;;;;;;;;;;;;;;;;5044673;28;1226;-53
2023/05/03 16:38:58;;;;;;;;;;;;;;;;;;5052371;28;4651;-54
2023/05/03 16:41:23;;;;;;;;;;;;;;;;;;5046744;28;5175;-54
2023/05/03 16:43:49;;;;;;;;;;;;;;;;;;5057485;28;4448;-54
2023/05/03 16:46:14;;;;;;;;;;;;;;;;;;5051676;28;4637;-54
2023/05/03 16:48:39;;;;;;;;;;;;;;;;;;5061536;28;1319;-56
2023/05/03 16:51:05;;;;;;;;;;;;;;;;;;5050919;28;4409;-54
2023/05/03 16:53:30;;;;;;;;;;;;;;;;;;5048921;28;4579;-53
2023/05/03 16:55:56;;;;;;;;;;;;;;;;;;5063521;28;4908;-55